Nearby METAR Reports

 

KPDX - Portland, Oregon, USA
Distance from station: NE 9mi, 14km
Updated: Fri, 20-May-2022 12:53pm PDT
Mostly cloudy
Mostly cloudy
 Wind from ENE
Wind: ENE 3 mph , 6 km/h
Temperature: 55°F , 13°C
Dew Point: 39°F , 4°C
Humidity: 55%
Barometer: 30.27 inHg , 1025.1 hPa
Clouds: Mostly cloudy
Visibility: 10 miles , 16 km
Cloud details: Partly cloudy 3500 ft
Mostly cloudy 4900 ft
2022/05/20 19:53 KPDX 201953Z 07003KT 10SM SCT035 BKN049 13/04 A3027 RMK AO2 SLP249 T01280039
KTMK - Tillamook, Oregon, USA
Distance from station: N 9mi, 14km
Updated: Fri, 20-May-2022 12:35pm PDT
Overcast
Overcast
 Wind from WNW
Wind: WNW 10 mph , 17 km/h
Temperature: 54°F , 12°C
Dew Point: 45°F , 7°C
Humidity: 72%
Barometer: 30.30 inHg , 1026.1 hPa
Clouds: Overcast
Visibility: 10 miles , 16 km
Cloud details: Overcast 4900 ft
2022/05/20 19:35 KTMK 201935Z AUTO 30009KT 10SM OVC049 12/07 A3030 RMK AO2
 
KSLE - Salem, Oregon, USA
Distance from station: NNW 14mi, 23km
Updated: Fri, 20-May-2022 12:56pm PDT
Overcast
Overcast
 Wind from N
Wind: N 5 mph , 7 km/h
Temperature: 57°F , 14°C
Dew Point: 37°F , 3°C
Humidity: 48%
Barometer: 30.25 inHg , 1024.4 hPa
Clouds: Overcast
Visibility: 10 miles , 16 km
Cloud details: Overcast 4600 ft
2022/05/20 19:56 KSLE 201956Z 36004KT 10SM OVC046 14/03 A3025 RMK AO2 SLP244 T01390033
KEUG - Eugene, Oregon, USA
Distance from station: ENE 12mi, 19km
Updated: Fri, 20-May-2022 12:54pm PDT
Mostly cloudy
Mostly cloudy
 Wind from N
Wind: N 8 mph , 13 km/h
Temperature: 55°F , 13°C
Dew Point: 41°F , 5°C
Humidity: 59%
Barometer: 30.25 inHg , 1024.4 hPa
Clouds: Mostly cloudy
Visibility: 10 miles , 16 km
Cloud details: Few Clouds 3500 ft
Mostly cloudy 4500 ft
2022/05/20 19:54 KEUG 201954Z 01007KT 10SM FEW035 BKN045 13/05 A3025 RMK AO2 SLP245 T01330050
 
KONP - Newport, Oregon, USA
Distance from station: NNW 31mi, 50km
Updated: Fri, 20-May-2022 12:55pm PDT
Partly cloudy
Partly cloudy
 Wind from NNW
Wind: NNW 15 mph , 24 km/h
Temperature: 52°F , 11°C
Dew Point: 43°F , 6°C
Humidity: 72%
Barometer: 30.30 inHg , 1026.1 hPa
Clouds: Partly cloudy
Visibility: 10 miles , 16 km
Cloud details: Partly cloudy 4200 ft
2022/05/20 19:55 KONP 201955Z AUTO 33013KT 10SM SCT042 11/06 A3030 RMK AO2
K6S2 - Florence, Oregon, USA
Distance from station: NW 21mi, 34km
Updated: Fri, 20-May-2022 12:55pm PDT
Clear
Clear
 Wind from NNW
Wind: NNW 20 mph , 31 km/h, Gust: 26 mph , 43 km/h
Temperature: 55°F , 13°C
Dew Point: 39°F , 4°C
Humidity: 55%
Barometer: 30.25 inHg , 1024.4 hPa
Clouds: Clear
Visibility: 10 miles , 16 km
2022/05/20 19:55 K6S2 201955Z AUTO 33017G23KT 10SM CLR 13/04 A3025 RMK AO2
 
KDLS - The Dalles, Oregon, USA
Distance from station: NW 30mi, 49km
Updated: Fri, 20-May-2022 12:53pm PDT
Clear
Clear
 Wind from NNW
Wind: NNW 15 mph , 24 km/h
Temperature: 64°F , 18°C
Dew Point: 37°F , 3°C
Humidity: 37%
Barometer: 30.15 inHg , 1021 hPa
Clouds: Clear
Visibility: 10 miles , 16 km
2022/05/20 19:53 KDLS 201953Z AUTO 34013KT 10SM CLR 18/03 A3015 RMK AO2 SLP211 T01830028
KRDM - Redmond, Oregon, USA
Distance from station: ESE 27mi, 43km
Updated: Fri, 20-May-2022 12:56pm PDT
Clear
Clear
 Wind from varies
Wind: varies 5 mph , 7 km/h
Temperature: 57°F , 14°C
Dew Point: 27°F , -3°C
Humidity: 31%
Barometer: 30.12 inHg , 1020 hPa
Clouds: Clear
Visibility: 10 miles , 16 km
2022/05/20 19:56 KRDM 201956Z VRB04KT 10SM CLR 14/M03 A3012 RMK AO2 SLP204 T01391033 $
 
KPDT - Pendleton, Oregon, USA
Distance from station: SSE 27mi, 44km
Updated: Fri, 20-May-2022 12:53pm PDT
Clear
Clear
 Wind from NW
Wind: NW 6 mph , 9 km/h
Temperature: 61°F , 16°C
Dew Point: 32°F , 0°C
Humidity: 34%
Barometer: 30.15 inHg , 1021 hPa
Clouds: Clear
Visibility: 10 miles , 16 km
2022/05/20 19:53 KPDT 201953Z 31005KT 10SM CLR 16/00 A3015 RMK AO2 SLP203 T01560000
KGCD - John Day, Oregon, USA
Distance from station: WNW 31mi, 50km
Updated: Fri, 20-May-2022 12:35pm PDT
Clear
Clear
 Wind from calm
Wind: Calm
Temperature: 52°F , 11°C
Dew Point: 30°F , -1°C
Humidity: 44%
Barometer: 30.10 inHg , 1019.3 hPa
Clouds: Clear
Visibility: 10 miles , 16 km
2022/05/20 19:35 KGCD 201935Z AUTO 00000KT 10SM CLR 11/M01 A3010 RMK AO2 T01081010
 
KAST - Astoria, Oregon, USA
Distance from station: N 28mi, 44km
Updated: Fri, 20-May-2022 12:55pm PDT
Overcast
Overcast
 Wind from NW
Wind: NW 13 mph , 20 km/h
Temperature: 55°F , 13°C
Dew Point: 45°F , 7°C
Humidity: 67%
Barometer: 30.27 inHg , 1025.1 hPa
Clouds: Overcast
Visibility: 10 miles , 16 km
Cloud details: Overcast 5500 ft
2022/05/20 19:55 KAST 201955Z AUTO 31011KT 10SM OVC055 13/07 A3027 RMK AO2 SLP250 T01280072
KSEA - Seattle, Washington, USA
Distance from station: NNE 31mi, 51km
Updated: Fri, 20-May-2022 12:53pm PDT
Overcast
Overcast
 Wind from calm
Wind: Calm
Temperature: 54°F , 12°C
Dew Point: 41°F , 5°C
Humidity: 63%
Barometer: 30.26 inHg , 1024.7 hPa
Clouds: Overcast
Visibility: 10 miles , 16 km
Cloud details: Few Clouds 2800 ft
Overcast 3800 ft
2022/05/20 19:53 KSEA 201953Z 00000KT 10SM FEW028 OVC038 12/05 A3026 RMK AO2 SLP254 T01170050